sensor_id;sensor_type;location;lat;lon;timestamp;temperature;humidity
41876;DHT22;27555;50.808;4.402;2023-02-28T00:00:25;3.60;94.20
41876;DHT22;27555;50.808;4.402;2023-02-28T00:02:53;3.60;94.20
41876;DHT22;27555;50.808;4.402;2023-02-28T00:05:21;3.50;94.10
41876;DHT22;27555;50.808;4.402;2023-02-28T00:07:48;3.10;94.60
41876;DHT22;27555;50.808;4.402;2023-02-28T00:10:19;2.90;95.10
41876;DHT22;27555;50.808;4.402;2023-02-28T00:12:48;3.10;95.00
41876;DHT22;27555;50.808;4.402;2023-02-28T00:15:18;3.30;94.80
41876;DHT22;27555;50.808;4.402;2023-02-28T00:17:44;3.10;94.80
41876;DHT22;27555;50.808;4.402;2023-02-28T00:20:13;3.00;95.10
41876;DHT22;27555;50.808;4.402;2023-02-28T00:22:41;3.10;95.00
41876;DHT22;27555;50.808;4.402;2023-02-28T00:25:08;3.10;94.90
41876;DHT22;27555;50.808;4.402;2023-02-28T00:27:35;3.40;94.70
41876;DHT22;27555;50.808;4.402;2023-02-28T00:30:04;3.50;94.40
41876;DHT22;27555;50.808;4.402;2023-02-28T00:32:30;3.50;94.40
41876;DHT22;27555;50.808;4.402;2023-02-28T00:34:56;3.60;94.40
41876;DHT22;27555;50.808;4.402;2023-02-28T00:37:21;3.50;94.40
41876;DHT22;27555;50.808;4.402;2023-02-28T00:39:48;3.50;94.40
41876;DHT22;27555;50.808;4.402;2023-02-28T00:42:13;3.50;94.30
41876;DHT22;27555;50.808;4.402;2023-02-28T00:44:39;3.50;94.30
41876;DHT22;27555;50.808;4.402;2023-02-28T00:47:04;3.40;94.50
41876;DHT22;27555;50.808;4.402;2023-02-28T00:49:30;3.30;94.50
41876;DHT22;27555;50.808;4.402;2023-02-28T00:51:56;3.30;94.80
41876;DHT22;27555;50.808;4.402;2023-02-28T00:54:22;3.20;94.90
41876;DHT22;27555;50.808;4.402;2023-02-28T00:56:48;3.10;95.00
41876;DHT22;27555;50.808;4.402;2023-02-28T00:59:15;3.10;95.30
41876;DHT22;27555;50.808;4.402;2023-02-28T01:01:42;3.10;95.30
41876;DHT22;27555;50.808;4.402;2023-02-28T01:04:08;3.10;95.40
41876;DHT22;27555;50.808;4.402;2023-02-28T01:06:34;3.10;95.40
41876;DHT22;27555;50.808;4.402;2023-02-28T01:09:00;3.00;95.50
41876;DHT22;27555;50.808;4.402;2023-02-28T01:11:25;3.00;95.60
41876;DHT22;27555;50.808;4.402;2023-02-28T01:13:51;3.00;95.40
41876;DHT22;27555;50.808;4.402;2023-02-28T01:16:17;3.10;95.40
41876;DHT22;27555;50.808;4.402;2023-02-28T01:18:43;3.00;95.40
41876;DHT22;27555;50.808;4.402;2023-02-28T01:21:12;2.70;95.90
41876;DHT22;27555;50.808;4.402;2023-02-28T01:23:38;2.60;96.00
41876;DHT22;27555;50.808;4.402;2023-02-28T01:26:13;2.70;96.10
41876;DHT22;27555;50.808;4.402;2023-02-28T01:28:39;2.70;95.90
41876;DHT22;27555;50.808;4.402;2023-02-28T01:31:05;2.60;96.10
41876;DHT22;27555;50.808;4.402;2023-02-28T01:33:32;2.80;95.90
41876;DHT22;27555;50.808;4.402;2023-02-28T01:36:02;2.80;95.70
41876;DHT22;27555;50.808;4.402;2023-02-28T01:38:29;2.50;96.10
41876;DHT22;27555;50.808;4.402;2023-02-28T01:40:54;2.30;96.60
41876;DHT22;27555;50.808;4.402;2023-02-28T01:43:27;2.30;96.60
41876;DHT22;27555;50.808;4.402;2023-02-28T01:45:54;2.10;96.80
41876;DHT22;27555;50.808;4.402;2023-02-28T01:48:27;2.10;97.00
41876;DHT22;27555;50.808;4.402;2023-02-28T01:50:53;2.30;96.90
41876;DHT22;27555;50.808;4.402;2023-02-28T01:53:24;2.50;96.70
41876;DHT22;27555;50.808;4.402;2023-02-28T01:55:53;2.80;96.10
41876;DHT22;27555;50.808;4.402;2023-02-28T01:58:19;2.90;95.80
41876;DHT22;27555;50.808;4.402;2023-02-28T02:00:45;2.70;95.80
41876;DHT22;27555;50.808;4.402;2023-02-28T02:03:16;2.70;96.10
41876;DHT22;27555;50.808;4.402;2023-02-28T02:05:47;2.70;96.10
41876;DHT22;27555;50.808;4.402;2023-02-28T02:08:17;2.90;95.90
41876;DHT22;27555;50.808;4.402;2023-02-28T02:10:45;2.50;96.00
41876;DHT22;27555;50.808;4.402;2023-02-28T02:13:40;2.80;96.00
41876;DHT22;27555;50.808;4.402;2023-02-28T02:25:06;2.60;96.20
41876;DHT22;27555;50.808;4.402;2023-02-28T02:36:13;2.60;96.50
41876;DHT22;27555;50.808;4.402;2023-02-28T02:46:43;2.50;96.40
41876;DHT22;27555;50.808;4.402;2023-02-28T02:49:14;2.50;96.50
41876;DHT22;27555;50.808;4.402;2023-02-28T02:51:41;2.60;96.30
41876;DHT22;27555;50.808;4.402;2023-02-28T02:54:13;2.60;96.40
41876;DHT22;27555;50.808;4.402;2023-02-28T02:56:44;2.50;96.40
41876;DHT22;27555;50.808;4.402;2023-02-28T02:59:13;2.30;96.70
41876;DHT22;27555;50.808;4.402;2023-02-28T03:01:41;2.10;97.00
41876;DHT22;27555;50.808;4.402;2023-02-28T03:04:16;2.10;97.10
41876;DHT22;27555;50.808;4.402;2023-02-28T03:06:43;2.20;97.10
41876;DHT22;27555;50.808;4.402;2023-02-28T03:09:09;2.30;97.00
41876;DHT22;27555;50.808;4.402;2023-02-28T03:11:36;2.30;96.80
41876;DHT22;27555;50.808;4.402;2023-02-28T03:14:55;2.20;97.10
41876;DHT22;27555;50.808;4.402;2023-02-28T03:22:28;1.90;97.80
41876;DHT22;27555;50.808;4.402;2023-02-28T03:25:20;2.10;97.40
41876;DHT22;27555;50.808;4.402;2023-02-28T03:33:17;2.10;97.40
41876;DHT22;27555;50.808;4.402;2023-02-28T03:35:52;2.00;97.40
41876;DHT22;27555;50.808;4.402;2023-02-28T03:38:44;2.00;97.40
41876;DHT22;27555;50.808;4.402;2023-02-28T03:41:25;1.80;97.60
41876;DHT22;27555;50.808;4.402;2023-02-28T03:43:56;1.60;98.00
41876;DHT22;27555;50.808;4.402;2023-02-28T03:46:25;1.40;98.40
41876;DHT22;27555;50.808;4.402;2023-02-28T03:49:15;1.30;98.80
41876;DHT22;27555;50.808;4.402;2023-02-28T03:51:43;1.30;99.00
41876;DHT22;27555;50.808;4.402;2023-02-28T03:54:26;1.30;98.90
41876;DHT22;27555;50.808;4.402;2023-02-28T03:56:59;1.20;99.20
41876;DHT22;27555;50.808;4.402;2023-02-28T03:59:34;1.10;99.40
41876;DHT22;27555;50.808;4.402;2023-02-28T04:02:00;1.20;99.50
41876;DHT22;27555;50.808;4.402;2023-02-28T04:04:26;1.30;99.30
41876;DHT22;27555;50.808;4.402;2023-02-28T04:06:52;1.30;99.20
41876;DHT22;27555;50.808;4.402;2023-02-28T04:09:18;1.40;99.20
41876;DHT22;27555;50.808;4.402;2023-02-28T04:11:48;1.50;98.90
41876;DHT22;27555;50.808;4.402;2023-02-28T04:14:18;1.70;98.50
41876;DHT22;27555;50.808;4.402;2023-02-28T04:16:44;1.60;98.60
41876;DHT22;27555;50.808;4.402;2023-02-28T04:19:11;1.50;98.90
41876;DHT22;27555;50.808;4.402;2023-02-28T04:21:48;1.80;98.40
41876;DHT22;27555;50.808;4.402;2023-02-28T04:24:27;2.00;98.00
41876;DHT22;27555;50.808;4.402;2023-02-28T04:26:54;2.20;97.50
41876;DHT22;27555;50.808;4.402;2023-02-28T04:29:23;1.80;97.90
41876;DHT22;27555;50.808;4.402;2023-02-28T04:31:49;1.40;98.60
41876;DHT22;27555;50.808;4.402;2023-02-28T04:34:15;1.50;98.80
41876;DHT22;27555;50.808;4.402;2023-02-28T04:36:41;1.50;98.70
41876;DHT22;27555;50.808;4.402;2023-02-28T04:39:06;1.60;98.70
41876;DHT22;27555;50.808;4.402;2023-02-28T04:41:32;1.90;98.30
41876;DHT22;27555;50.808;4.402;2023-02-28T04:43:58;1.90;98.10
41876;DHT22;27555;50.808;4.402;2023-02-28T04:46:24;1.90;98.10
41876;DHT22;27555;50.808;4.402;2023-02-28T04:48:50;1.80;98.30
41876;DHT22;27555;50.808;4.402;2023-02-28T04:51:17;1.90;98.30
41876;DHT22;27555;50.808;4.402;2023-02-28T04:53:43;2.00;98.00
41876;DHT22;27555;50.808;4.402;2023-02-28T04:56:14;2.00;97.80
41876;DHT22;27555;50.808;4.402;2023-02-28T04:58:40;1.90;97.90
41876;DHT22;27555;50.808;4.402;2023-02-28T05:03:46;1.90;98.10
41876;DHT22;27555;50.808;4.402;2023-02-28T05:06:12;2.00;97.90
41876;DHT22;27555;50.808;4.402;2023-02-28T05:08:39;2.00;98.00
41876;DHT22;27555;50.808;4.402;2023-02-28T05:11:08;2.00;98.00
41876;DHT22;27555;50.808;4.402;2023-02-28T05:13:37;2.00;98.00
41876;DHT22;27555;50.808;4.402;2023-02-28T05:16:02;1.90;98.10
41876;DHT22;27555;50.808;4.402;2023-02-28T05:18:28;1.90;98.40
41876;DHT22;27555;50.808;4.402;2023-02-28T05:20:54;2.00;98.30
41876;DHT22;27555;50.808;4.402;2023-02-28T05:23:20;1.90;98.30
41876;DHT22;27555;50.808;4.402;2023-02-28T05:25:47;2.00;98.20
41876;DHT22;27555;50.808;4.402;2023-02-28T05:28:13;2.10;98.10
41876;DHT22;27555;50.808;4.402;2023-02-28T05:30:38;2.20;97.90
41876;DHT22;27555;50.808;4.402;2023-02-28T05:33:04;2.20;97.70
41876;DHT22;27555;50.808;4.402;2023-02-28T05:35:29;2.10;97.90
41876;DHT22;27555;50.808;4.402;2023-02-28T05:37:55;2.00;98.20
41876;DHT22;27555;50.808;4.402;2023-02-28T05:40:20;1.90;98.50
41876;DHT22;27555;50.808;4.402;2023-02-28T05:42:47;1.80;98.70
41876;DHT22;27555;50.808;4.402;2023-02-28T05:45:12;1.70;98.90
41876;DHT22;27555;50.808;4.402;2023-02-28T05:47:38;1.70;99.10
41876;DHT22;27555;50.808;4.402;2023-02-28T05:50:04;2.10;98.90
41876;DHT22;27555;50.808;4.402;2023-02-28T05:52:31;2.40;98.00
41876;DHT22;27555;50.808;4.402;2023-02-28T05:54:56;2.50;97.90
41876;DHT22;27555;50.808;4.402;2023-02-28T05:57:22;2.50;97.70
41876;DHT22;27555;50.808;4.402;2023-02-28T05:59:48;2.30;98.00
41876;DHT22;27555;50.808;4.402;2023-02-28T06:02:15;2.30;98.40
41876;DHT22;27555;50.808;4.402;2023-02-28T06:04:43;2.30;98.10
41876;DHT22;27555;50.808;4.402;2023-02-28T06:07:09;2.40;97.80
41876;DHT22;27555;50.808;4.402;2023-02-28T06:09:35;2.40;97.80
41876;DHT22;27555;50.808;4.402;2023-02-28T06:12:02;2.40;97.80
41876;DHT22;27555;50.808;4.402;2023-02-28T06:14:31;2.20;98.10
41876;DHT22;27555;50.808;4.402;2023-02-28T06:16:57;2.00;98.50
41876;DHT22;27555;50.808;4.402;2023-02-28T06:19:23;2.00;98.80
41876;DHT22;27555;50.808;4.402;2023-02-28T06:21:51;2.10;98.80
41876;DHT22;27555;50.808;4.402;2023-02-28T06:24:21;2.20;98.40
41876;DHT22;27555;50.808;4.402;2023-02-28T06:26:47;1.80;98.90
41876;DHT22;27555;50.808;4.402;2023-02-28T06:29:13;1.90;99.20
41876;DHT22;27555;50.808;4.402;2023-02-28T06:31:43;2.10;99.00
41876;DHT22;27555;50.808;4.402;2023-02-28T06:34:09;2.10;98.90
41876;DHT22;27555;50.808;4.402;2023-02-28T06:36:40;2.10;98.80
41876;DHT22;27555;50.808;4.402;2023-02-28T06:39:07;2.20;98.80
41876;DHT22;27555;50.808;4.402;2023-02-28T06:41:33;2.10;98.80
41876;DHT22;27555;50.808;4.402;2023-02-28T06:44:13;2.10;99.00
41876;DHT22;27555;50.808;4.402;2023-02-28T06:46:43;2.40;98.50
41876;DHT22;27555;50.808;4.402;2023-02-28T06:49:10;2.60;97.90
41876;DHT22;27555;50.808;4.402;2023-02-28T06:51:38;2.30;98.20
41876;DHT22;27555;50.808;4.402;2023-02-28T06:54:04;2.10;98.60
41876;DHT22;27555;50.808;4.402;2023-02-28T06:56:30;1.90;99.10
41876;DHT22;27555;50.808;4.402;2023-02-28T06:58:56;1.80;99.20
41876;DHT22;27555;50.808;4.402;2023-02-28T07:01:22;1.90;99.40
41876;DHT22;27555;50.808;4.402;2023-02-28T07:03:51;2.10;99.30
41876;DHT22;27555;50.808;4.402;2023-02-28T07:06:19;2.10;99.10
41876;DHT22;27555;50.808;4.402;2023-02-28T07:08:45;2.10;99.30
41876;DHT22;27555;50.808;4.402;2023-02-28T07:11:10;2.10;99.10
41876;DHT22;27555;50.808;4.402;2023-02-28T07:13:36;2.30;98.90
41876;DHT22;27555;50.808;4.402;2023-02-28T07:16:04;2.20;99.00
41876;DHT22;27555;50.808;4.402;2023-02-28T07:18:31;2.40;98.90
41876;DHT22;27555;50.808;4.402;2023-02-28T07:20:57;3.20;99.10
41876;DHT22;27555;50.808;4.402;2023-02-28T07:23:23;4.30;97.50
41876;DHT22;27555;50.808;4.402;2023-02-28T07:25:50;5.10;96.30
41876;DHT22;27555;50.808;4.402;2023-02-28T07:28:16;5.70;95.20
41876;DHT22;27555;50.808;4.402;2023-02-28T07:30:42;5.90;93.70
41876;DHT22;27555;50.808;4.402;2023-02-28T07:33:08;5.40;94.00
41876;DHT22;27555;50.808;4.402;2023-02-28T07:35:33;5.90;94.00
41876;DHT22;27555;50.808;4.402;2023-02-28T07:38:00;6.30;93.30
41876;DHT22;27555;50.808;4.402;2023-02-28T07:40:26;7.00;92.80
41876;DHT22;27555;50.808;4.402;2023-02-28T07:42:51;6.50;91.70
41876;DHT22;27555;50.808;4.402;2023-02-28T07:45:17;6.80;92.80
41876;DHT22;27555;50.808;4.402;2023-02-28T07:47:43;7.50;91.50
41876;DHT22;27555;50.808;4.402;2023-02-28T07:50:11;7.70;90.80
41876;DHT22;27555;50.808;4.402;2023-02-28T07:52:38;8.10;90.60
41876;DHT22;27555;50.808;4.402;2023-02-28T07:55:05;8.30;90.00
41876;DHT22;27555;50.808;4.402;2023-02-28T07:57:31;8.90;88.90
41876;DHT22;27555;50.808;4.402;2023-02-28T07:59:57;9.40;87.90
41876;DHT22;27555;50.808;4.402;2023-02-28T08:02:22;9.90;85.90
41876;DHT22;27555;50.808;4.402;2023-02-28T08:04:48;10.50;84.90
41876;DHT22;27555;50.808;4.402;2023-02-28T08:07:15;11.00;83.80
41876;DHT22;27555;50.808;4.402;2023-02-28T08:09:41;10.50;83.00
41876;DHT22;27555;50.808;4.402;2023-02-28T08:12:08;11.00;82.90
41876;DHT22;27555;50.808;4.402;2023-02-28T08:14:34;10.60;80.60
41876;DHT22;27555;50.808;4.402;2023-02-28T08:17:00;9.90;81.90
41876;DHT22;27555;50.808;4.402;2023-02-28T08:19:26;8.80;84.30
41876;DHT22;27555;50.808;4.402;2023-02-28T08:21:51;9.30;83.50
41876;DHT22;27555;50.808;4.402;2023-02-28T08:24:17;9.00;83.90
41876;DHT22;27555;50.808;4.402;2023-02-28T08:26:42;9.70;82.40
41876;DHT22;27555;50.808;4.402;2023-02-28T08:29:08;9.10;82.20
41876;DHT22;27555;50.808;4.402;2023-02-28T08:31:34;9.50;81.90
41876;DHT22;27555;50.808;4.402;2023-02-28T08:34:11;10.30;81.20
41876;DHT22;27555;50.808;4.402;2023-02-28T08:36:37;10.40;80.20
41876;DHT22;27555;50.808;4.402;2023-02-28T08:39:04;10.10;81.00
41876;DHT22;27555;50.808;4.402;2023-02-28T08:41:30;10.50;80.60
41876;DHT22;27555;50.808;4.402;2023-02-28T08:43:56;10.90;78.50
41876;DHT22;27555;50.808;4.402;2023-02-28T08:46:22;11.40;78.10
41876;DHT22;27555;50.808;4.402;2023-02-28T08:48:52;11.70;78.00
41876;DHT22;27555;50.808;4.402;2023-02-28T08:51:18;12.00;77.40
41876;DHT22;27555;50.808;4.402;2023-02-28T08:53:47;12.40;75.40
41876;DHT22;27555;50.808;4.402;2023-02-28T08:56:15;12.00;75.60
41876;DHT22;27555;50.808;4.402;2023-02-28T08:58:42;11.40;77.40
41876;DHT22;27555;50.808;4.402;2023-02-28T09:03:34;11.70;76.20
41876;DHT22;27555;50.808;4.402;2023-02-28T09:06:01;12.20;75.90
41876;DHT22;27555;50.808;4.402;2023-02-28T09:08:28;13.00;73.80
41876;DHT22;27555;50.808;4.402;2023-02-28T09:10:54;12.30;74.40
41876;DHT22;27555;50.808;4.402;2023-02-28T09:13:22;12.80;72.70
41876;DHT22;27555;50.808;4.402;2023-02-28T09:15:48;12.50;73.30
41876;DHT22;27555;50.808;4.402;2023-02-28T09:18:14;12.70;72.60
41876;DHT22;27555;50.808;4.402;2023-02-28T09:20:40;13.30;72.00
41876;DHT22;27555;50.808;4.402;2023-02-28T09:23:07;13.40;70.00
41876;DHT22;27555;50.808;4.402;2023-02-28T09:25:33;13.70;69.80
41876;DHT22;27555;50.808;4.402;2023-02-28T09:27:59;14.30;69.00
41876;DHT22;27555;50.808;4.402;2023-02-28T09:30:25;14.40;68.10
41876;DHT22;27555;50.808;4.402;2023-02-28T09:32:50;14.00;68.90
41876;DHT22;27555;50.808;4.402;2023-02-28T09:35:21;14.30;68.40
41876;DHT22;27555;50.808;4.402;2023-02-28T09:37:47;14.30;67.80
41876;DHT22;27555;50.808;4.402;2023-02-28T09:40:13;13.70;67.70
41876;DHT22;27555;50.808;4.402;2023-02-28T09:42:40;14.00;66.70
41876;DHT22;27555;50.808;4.402;2023-02-28T09:47:45;14.90;66.90
41876;DHT22;27555;50.808;4.402;2023-02-28T09:52:50;14.40;66.50
41876;DHT22;27555;50.808;4.402;2023-02-28T09:55:24;14.40;66.30
41876;DHT22;27555;50.808;4.402;2023-02-28T09:57:51;15.20;65.60
41876;DHT22;27555;50.808;4.402;2023-02-28T10:05:20;14.60;64.20
41876;DHT22;27555;50.808;4.402;2023-02-28T10:10:38;14.70;65.30
41876;DHT22;27555;50.808;4.402;2023-02-28T10:15:52;14.40;64.10
41876;DHT22;27555;50.808;4.402;2023-02-28T10:18:23;14.20;63.90
41876;DHT22;27555;50.808;4.402;2023-02-28T10:20:50;14.40;63.40
41876;DHT22;27555;50.808;4.402;2023-02-28T10:23:21;14.20;63.40
41876;DHT22;27555;50.808;4.402;2023-02-28T10:25:53;13.00;65.10
41876;DHT22;27555;50.808;4.402;2023-02-28T10:28:19;12.00;65.50
41876;DHT22;27555;50.808;4.402;2023-02-28T10:30:48;12.60;65.30
41876;DHT22;27555;50.808;4.402;2023-02-28T10:33:30;12.50;64.40
41876;DHT22;27555;50.808;4.402;2023-02-28T10:35:56;13.20;64.20
41876;DHT22;27555;50.808;4.402;2023-02-28T10:38:33;13.90;62.80
41876;DHT22;27555;50.808;4.402;2023-02-28T10:41:15;13.20;62.00
41876;DHT22;27555;50.808;4.402;2023-02-28T10:43:42;12.20;63.40
41876;DHT22;27555;50.808;4.402;2023-02-28T10:48:50;14.10;62.20
41876;DHT22;27555;50.808;4.402;2023-02-28T10:51:22;13.80;61.70
41876;DHT22;27555;50.808;4.402;2023-02-28T10:53:55;11.70;63.50
41876;DHT22;27555;50.808;4.402;2023-02-28T10:56:22;12.10;64.40
41876;DHT22;27555;50.808;4.402;2023-02-28T11:03:49;13.40;63.50
41876;DHT22;27555;50.808;4.402;2023-02-28T11:06:26;14.00;63.30
41876;DHT22;27555;50.808;4.402;2023-02-28T11:08:56;14.50;62.10
41876;DHT22;27555;50.808;4.402;2023-02-28T11:11:25;14.80;61.80
41876;DHT22;27555;50.808;4.402;2023-02-28T11:13:54;15.30;61.70
41876;DHT22;27555;50.808;4.402;2023-02-28T11:16:21;15.60;61.10
41876;DHT22;27555;50.808;4.402;2023-02-28T11:18:52;16.50;60.70
41876;DHT22;27555;50.808;4.402;2023-02-28T11:21:26;16.70;59.50
41876;DHT22;27555;50.808;4.402;2023-02-28T11:26:40;15.40;59.10
41876;DHT22;27555;50.808;4.402;2023-02-28T11:29:11;15.50;59.70
41876;DHT22;27555;50.808;4.402;2023-02-28T11:31:37;15.00;60.30
41876;DHT22;27555;50.808;4.402;2023-02-28T11:34:23;14.70;59.90
41876;DHT22;27555;50.808;4.402;2023-02-28T11:36:51;14.70;60.00
41876;DHT22;27555;50.808;4.402;2023-02-28T11:39:19;14.20;60.40
41876;DHT22;27555;50.808;4.402;2023-02-28T11:42:07;14.50;61.00
41876;DHT22;27555;50.808;4.402;2023-02-28T11:47:48;13.40;62.10
41876;DHT22;27555;50.808;4.402;2023-02-28T11:50:22;11.80;63.50
41876;DHT22;27555;50.808;4.402;2023-02-28T11:52:54;10.30;65.10
41876;DHT22;27555;50.808;4.402;2023-02-28T12:00:51;12.80;63.60
41876;DHT22;27555;50.808;4.402;2023-02-28T12:03:38;13.00;63.40
41876;DHT22;27555;50.808;4.402;2023-02-28T12:06:25;13.50;62.80
41876;DHT22;27555;50.808;4.402;2023-02-28T12:09:00;13.30;62.10
41876;DHT22;27555;50.808;4.402;2023-02-28T12:19:24;14.80;59.90
41876;DHT22;27555;50.808;4.402;2023-02-28T12:27:21;15.00;58.80
41876;DHT22;27555;50.808;4.402;2023-02-28T12:32:40;14.50;59.50
41876;DHT22;27555;50.808;4.402;2023-02-28T12:37:45;15.30;58.70
41876;DHT22;27555;50.808;4.402;2023-02-28T12:40:13;14.90;58.30
41876;DHT22;27555;50.808;4.402;2023-02-28T12:42:51;14.00;59.20
41876;DHT22;27555;50.808;4.402;2023-02-28T12:45:27;14.10;59.30
41876;DHT22;27555;50.808;4.402;2023-02-28T12:48:05;14.50;58.70
41876;DHT22;27555;50.808;4.402;2023-02-28T12:50:32;14.20;59.00
41876;DHT22;27555;50.808;4.402;2023-02-28T12:53:05;14.40;59.20
41876;DHT22;27555;50.808;4.402;2023-02-28T12:55:53;14.00;59.00
41876;DHT22;27555;50.808;4.402;2023-02-28T12:58:36;13.60;60.00
41876;DHT22;27555;50.808;4.402;2023-02-28T13:09:13;11.80;61.20
41876;DHT22;27555;50.808;4.402;2023-02-28T13:11:52;10.20;62.90
41876;DHT22;27555;50.808;4.402;2023-02-28T13:14:28;9.50;64.00
41876;DHT22;27555;50.808;4.402;2023-02-28T13:19:30;8.70;65.20
41876;DHT22;27555;50.808;4.402;2023-02-28T13:21:57;7.90;66.30
41876;DHT22;27555;50.808;4.402;2023-02-28T13:24:43;7.50;66.30
41876;DHT22;27555;50.808;4.402;2023-02-28T13:29:42;7.50;66.80
41876;DHT22;27555;50.808;4.402;2023-02-28T13:42:49;7.60;66.80
41876;DHT22;27555;50.808;4.402;2023-02-28T13:48:17;7.30;67.80
41876;DHT22;27555;50.808;4.402;2023-02-28T13:50:43;7.10;68.30
41876;DHT22;27555;50.808;4.402;2023-02-28T14:04:33;7.20;67.30
41876;DHT22;27555;50.808;4.402;2023-02-28T14:07:04;7.20;67.10
41876;DHT22;27555;50.808;4.402;2023-02-28T14:09:40;7.10;67.50
41876;DHT22;27555;50.808;4.402;2023-02-28T14:18:16;6.80;68.80
41876;DHT22;27555;50.808;4.402;2023-02-28T14:20:43;6.90;69.20
41876;DHT22;27555;50.808;4.402;2023-02-28T14:23:25;6.80;68.20
41876;DHT22;27555;50.808;4.402;2023-02-28T14:26:03;6.70;68.90
41876;DHT22;27555;50.808;4.402;2023-02-28T14:29:02;6.50;69.60
41876;DHT22;27555;50.808;4.402;2023-02-28T14:31:38;6.70;69.50
41876;DHT22;27555;50.808;4.402;2023-02-28T14:37:00;7.40;69.20
41876;DHT22;27555;50.808;4.402;2023-02-28T14:39:27;7.60;67.60
41876;DHT22;27555;50.808;4.402;2023-02-28T14:41:56;7.30;67.80
41876;DHT22;27555;50.808;4.402;2023-02-28T14:44:25;7.20;68.60
41876;DHT22;27555;50.808;4.402;2023-02-28T14:46:54;6.90;68.70
41876;DHT22;27555;50.808;4.402;2023-02-28T14:52:21;6.80;69.50
41876;DHT22;27555;50.808;4.402;2023-02-28T14:54:56;7.10;69.20
41876;DHT22;27555;50.808;4.402;2023-02-28T14:57:27;6.70;69.60
41876;DHT22;27555;50.808;4.402;2023-02-28T14:59:59;6.70;69.60
41876;DHT22;27555;50.808;4.402;2023-02-28T15:02:29;6.70;69.60
41876;DHT22;27555;50.808;4.402;2023-02-28T15:04:57;6.80;69.40
41876;DHT22;27555;50.808;4.402;2023-02-28T15:07:23;6.80;69.20
41876;DHT22;27555;50.808;4.402;2023-02-28T15:10:17;6.70;69.90
41876;DHT22;27555;50.808;4.402;2023-02-28T15:15:27;6.80;69.50
41876;DHT22;27555;50.808;4.402;2023-02-28T15:17:59;7.00;69.20
41876;DHT22;27555;50.808;4.402;2023-02-28T15:20:26;6.80;70.60
41876;DHT22;27555;50.808;4.402;2023-02-28T15:22:54;6.70;70.10
41876;DHT22;27555;50.808;4.402;2023-02-28T15:25:22;6.70;70.50
41876;DHT22;27555;50.808;4.402;2023-02-28T15:27:50;6.80;70.30
41876;DHT22;27555;50.808;4.402;2023-02-28T15:30:49;6.90;70.40
41876;DHT22;27555;50.808;4.402;2023-02-28T15:33:19;6.70;70.40
41876;DHT22;27555;50.808;4.402;2023-02-28T15:35:45;6.50;70.40
41876;DHT22;27555;50.808;4.402;2023-02-28T15:38:23;6.70;70.30
41876;DHT22;27555;50.808;4.402;2023-02-28T15:40:57;6.80;70.60
41876;DHT22;27555;50.808;4.402;2023-02-28T15:43:25;6.80;71.00
41876;DHT22;27555;50.808;4.402;2023-02-28T15:46:12;6.50;71.40
41876;DHT22;27555;50.808;4.402;2023-02-28T15:51:18;6.50;71.90
41876;DHT22;27555;50.808;4.402;2023-02-28T15:53:50;6.40;72.10
41876;DHT22;27555;50.808;4.402;2023-02-28T15:56:22;6.40;72.20
41876;DHT22;27555;50.808;4.402;2023-02-28T15:58:48;6.30;72.50
41876;DHT22;27555;50.808;4.402;2023-02-28T16:01:26;6.30;72.40
41876;DHT22;27555;50.808;4.402;2023-02-28T16:03:57;6.60;72.00
41876;DHT22;27555;50.808;4.402;2023-02-28T16:06:39;6.90;70.70
41876;DHT22;27555;50.808;4.402;2023-02-28T16:09:10;7.10;70.80
41876;DHT22;27555;50.808;4.402;2023-02-28T16:11:39;6.70;71.40
41876;DHT22;27555;50.808;4.402;2023-02-28T16:14:08;6.80;71.00
41876;DHT22;27555;50.808;4.402;2023-02-28T16:16:34;6.90;70.90
41876;DHT22;27555;50.808;4.402;2023-02-28T16:19:00;6.80;71.10
41876;DHT22;27555;50.808;4.402;2023-02-28T16:21:25;6.40;72.50
41876;DHT22;27555;50.808;4.402;2023-02-28T16:23:51;6.20;72.60
41876;DHT22;27555;50.808;4.402;2023-02-28T16:26:22;6.00;73.60
41876;DHT22;27555;50.808;4.402;2023-02-28T16:28:49;6.00;73.30
41876;DHT22;27555;50.808;4.402;2023-02-28T16:31:16;6.00;73.80
41876;DHT22;27555;50.808;4.402;2023-02-28T16:33:43;5.80;74.30
41876;DHT22;27555;50.808;4.402;2023-02-28T16:36:18;5.70;75.40
41876;DHT22;27555;50.808;4.402;2023-02-28T16:38:43;5.90;74.70
41876;DHT22;27555;50.808;4.402;2023-02-28T16:41:14;5.70;74.60
41876;DHT22;27555;50.808;4.402;2023-02-28T16:43:43;5.80;74.90
41876;DHT22;27555;50.808;4.402;2023-02-28T16:46:11;6.00;74.20
41876;DHT22;27555;50.808;4.402;2023-02-28T16:48:37;5.90;74.60
41876;DHT22;27555;50.808;4.402;2023-02-28T16:51:03;5.90;74.30
41876;DHT22;27555;50.808;4.402;2023-02-28T16:53:29;5.90;74.40
41876;DHT22;27555;50.808;4.402;2023-02-28T16:55:55;5.70;75.00
41876;DHT22;27555;50.808;4.402;2023-02-28T16:58:21;5.60;75.20
41876;DHT22;27555;50.808;4.402;2023-02-28T17:00:48;5.50;75.50
41876;DHT22;27555;50.808;4.402;2023-02-28T17:03:26;5.50;76.00
41876;DHT22;27555;50.808;4.402;2023-02-28T17:05:52;5.60;75.90
41876;DHT22;27555;50.808;4.402;2023-02-28T17:08:17;5.60;76.20
41876;DHT22;27555;50.808;4.402;2023-02-28T17:10:43;5.60;76.00
41876;DHT22;27555;50.808;4.402;2023-02-28T17:13:09;5.90;75.60
41876;DHT22;27555;50.808;4.402;2023-02-28T17:15:35;6.00;75.30
41876;DHT22;27555;50.808;4.402;2023-02-28T17:18:01;6.10;74.90
41876;DHT22;27555;50.808;4.402;2023-02-28T17:20:27;6.10;74.80
41876;DHT22;27555;50.808;4.402;2023-02-28T17:22:54;6.00;74.90
41876;DHT22;27555;50.808;4.402;2023-02-28T17:25:20;5.70;75.30
41876;DHT22;27555;50.808;4.402;2023-02-28T17:27:46;5.60;75.70
41876;DHT22;27555;50.808;4.402;2023-02-28T17:30:23;5.60;75.60
41876;DHT22;27555;50.808;4.402;2023-02-28T17:32:49;5.50;76.10
41876;DHT22;27555;50.808;4.402;2023-02-28T17:35:14;5.70;75.90
41876;DHT22;27555;50.808;4.402;2023-02-28T17:37:41;5.70;75.50
41876;DHT22;27555;50.808;4.402;2023-02-28T17:40:16;5.90;75.30
41876;DHT22;27555;50.808;4.402;2023-02-28T17:42:43;6.00;75.20
41876;DHT22;27555;50.808;4.402;2023-02-28T17:45:09;6.00;75.30
41876;DHT22;27555;50.808;4.402;2023-02-28T17:47:36;6.10;75.10
41876;DHT22;27555;50.808;4.402;2023-02-28T17:50:02;5.90;75.50
41876;DHT22;27555;50.808;4.402;2023-02-28T17:52:27;5.70;75.70
41876;DHT22;27555;50.808;4.402;2023-02-28T17:54:54;5.90;75.90
41876;DHT22;27555;50.808;4.402;2023-02-28T17:57:20;6.10;75.30
41876;DHT22;27555;50.808;4.402;2023-02-28T17:59:45;5.90;75.70
41876;DHT22;27555;50.808;4.402;2023-02-28T18:02:12;5.60;76.60
41876;DHT22;27555;50.808;4.402;2023-02-28T18:04:38;5.70;76.50
41876;DHT22;27555;50.808;4.402;2023-02-28T18:07:05;5.50;76.80
41876;DHT22;27555;50.808;4.402;2023-02-28T18:09:31;5.40;77.50
41876;DHT22;27555;50.808;4.402;2023-02-28T18:11:57;5.40;77.60
41876;DHT22;27555;50.808;4.402;2023-02-28T18:14:24;5.30;77.20
41876;DHT22;27555;50.808;4.402;2023-02-28T18:16:51;5.50;77.10
41876;DHT22;27555;50.808;4.402;2023-02-28T18:19:17;5.40;77.30
41876;DHT22;27555;50.808;4.402;2023-02-28T18:21:44;5.50;77.50
41876;DHT22;27555;50.808;4.402;2023-02-28T18:24:10;5.60;77.40